Cave City, Kentucky
Current Conditions -  °F | °C
As of 3:15 PM on Friday 24 Oct 2014 (Local Time) from KGLW Reporting Station
Clear Clear  
Wind Chill: 20°   Ceiling: Unl
Heat Index: 20°   Visibility: 10mi
Dew Point:   Wind: 6mph
Humidity: 40%   Direction: 250°WSW
Pressure: 30.06"   Gusts: NA
Location:  37.14°N, 85.96°W
Report Text: KGLW 242015Z AUTO 25005KT 10SM CLR 20/06 A3006 RMK AO2 T01990060
Loading
Personal Weather Stations






























Interactive Weather Map
Tropical Storm Tracking
New forecast layout! Learn more

10-Day Weather Forecast

Advertisements
Track Severe Weather on mobile